createdAt,value
2023-04-21T00:01:14.982Z,97497.28
2023-04-21T00:03:44.265Z,97500.63
2023-04-21T00:06:12.870Z,97497.16
2023-04-21T00:08:41.512Z,97488.53
2023-04-21T00:11:10.798Z,97485.06
2023-04-21T00:13:39.202Z,97487.53
2023-04-21T00:16:08.496Z,97486.03
2023-04-21T00:18:38.366Z,97485.06
2023-04-21T00:21:07.044Z,97463.47
2023-04-21T00:23:35.681Z,97478.09
2023-04-21T00:26:04.057Z,97448.16
2023-04-21T00:28:32.308Z,97477.44
2023-04-21T00:31:00.909Z,97482.59
2023-04-21T00:33:29.253Z,97480.84
2023-04-21T00:35:59.950Z,97460.28
2023-04-21T00:38:28.224Z,97487.16
2023-04-21T00:40:56.815Z,97440.00
2023-04-21T00:43:25.999Z,97477.94
2023-04-21T00:45:54.417Z,97470.91
2023-04-21T00:48:22.663Z,97465.06
2023-04-21T00:50:51.158Z,97466.06
2023-04-21T00:53:22.190Z,97459.78
2023-04-21T00:55:52.254Z,97446.59
2023-04-21T00:58:20.693Z,97460.41
2023-04-21T01:00:49.022Z,97455.63
2023-04-21T01:03:17.883Z,97459.16
2023-04-21T01:05:46.921Z,97462.84
2023-04-21T01:08:16.388Z,97464.56
2023-04-21T01:10:46.179Z,97474.16
2023-04-21T01:13:14.501Z,97461.50
2023-04-21T01:15:42.893Z,97464.00
2023-04-21T01:18:12.001Z,97457.22
2023-04-21T01:20:40.380Z,97466.47
2023-04-21T01:23:10.118Z,97461.25
2023-04-21T01:25:38.548Z,97468.22
2023-04-21T01:28:06.920Z,97470.78
2023-04-21T01:30:35.239Z,97464.63
2023-04-21T01:33:03.737Z,97468.84
2023-04-21T01:35:32.317Z,97471.47
2023-04-21T01:38:01.536Z,97462.91
2023-04-21T01:40:31.461Z,97472.56
2023-04-21T01:42:59.803Z,97389.25
2023-04-21T01:45:28.073Z,97466.38
2023-04-21T01:47:56.451Z,97467.03
2023-04-21T01:50:24.822Z,97468.69
2023-04-21T01:52:53.090Z,97458.66
2023-04-21T01:55:21.953Z,97467.34
2023-04-21T01:57:51.708Z,97469.09
2023-04-21T02:00:20.473Z,97470.03
2023-04-21T02:02:48.914Z,97462.19
2023-04-21T02:05:17.332Z,97462.25
2023-04-21T02:07:45.628Z,97454.50
2023-04-21T02:10:14.500Z,97448.50
2023-04-21T02:12:42.776Z,97427.88
2023-04-21T02:15:13.616Z,97462.13
2023-04-21T02:17:45.068Z,97449.91
2023-04-21T02:20:14.196Z,97459.44
2023-04-21T02:22:42.422Z,97459.31
2023-04-21T02:25:11.125Z,97459.22
2023-04-21T02:27:39.478Z,97475.66
2023-04-21T02:30:09.876Z,97466.19
2023-04-21T02:32:39.763Z,97471.63
2023-04-21T02:35:08.704Z,97457.78
2023-04-21T02:37:37.420Z,97366.72
2023-04-21T02:40:06.832Z,97462.00
2023-04-21T02:42:35.338Z,97463.88
2023-04-21T02:45:03.560Z,97465.69
2023-04-21T02:47:31.901Z,97463.13
2023-04-21T02:50:02.297Z,97443.28
2023-04-21T02:52:30.678Z,97463.09
2023-04-21T02:54:59.029Z,97457.66
2023-04-21T02:57:27.295Z,97464.66
2023-04-21T02:59:55.648Z,97441.34
2023-04-21T03:02:24.106Z,97458.78
2023-04-21T03:04:53.250Z,97426.09
2023-04-21T03:07:23.017Z,97452.78
2023-04-21T03:09:51.367Z,97452.97
2023-04-21T03:12:19.585Z,97456.28
2023-04-21T03:14:48.224Z,97450.19
2023-04-21T03:17:16.559Z,97432.13
2023-04-21T03:19:44.958Z,97416.84
2023-04-21T03:22:13.254Z,97399.56
2023-04-21T03:24:43.115Z,97434.69
2023-04-21T03:27:11.448Z,97296.41
2023-04-21T03:29:39.759Z,97447.47
2023-04-21T03:32:08.133Z,97453.53
2023-04-21T03:34:36.723Z,97442.91
2023-04-21T03:37:04.946Z,97446.34
2023-04-21T03:39:33.203Z,97453.63
2023-04-21T03:42:03.000Z,97427.53
2023-04-21T03:44:31.306Z,97446.53
2023-04-21T03:46:59.738Z,97434.69
2023-04-21T03:49:28.048Z,97455.59
2023-04-21T03:51:56.450Z,97452.13
2023-04-21T03:54:24.841Z,97449.44
2023-04-21T03:56:53.045Z,97454.06
2023-04-21T03:59:22.950Z,97462.75
2023-04-21T04:01:51.588Z,97458.47
2023-04-21T04:04:20.276Z,97459.16
2023-04-21T04:06:49.071Z,97456.47
2023-04-21T04:09:17.396Z,97432.47
2023-04-21T04:11:45.975Z,97458.13
2023-04-21T04:14:14.290Z,97464.25
2023-04-21T04:16:44.205Z,97451.25
2023-04-21T04:19:12.685Z,97445.81
2023-04-21T04:21:41.092Z,97450.09
2023-04-21T04:24:11.311Z,97448.94
2023-04-21T04:26:40.256Z,97475.19
2023-04-21T04:29:10.983Z,97438.09
2023-04-21T04:31:39.980Z,97381.22
2023-04-21T04:34:09.847Z,97477.50
2023-04-21T04:36:38.167Z,97489.75
2023-04-21T04:39:07.767Z,97462.19
2023-04-21T04:41:37.447Z,97467.97
2023-04-21T04:44:06.390Z,97492.66
2023-04-21T04:46:34.767Z,97496.66
2023-04-21T04:49:03.326Z,97495.53
2023-04-21T04:51:34.091Z,97497.34
2023-04-21T04:54:02.419Z,97508.81
2023-04-21T04:56:32.388Z,97502.13
2023-04-21T04:59:00.932Z,97501.31
2023-04-21T05:01:30.981Z,97502.31
2023-04-21T05:03:59.885Z,97509.31
2023-04-21T05:06:28.717Z,97483.31
2023-04-21T05:08:58.346Z,97496.47
2023-04-21T05:11:26.692Z,97483.38
2023-04-21T05:13:55.186Z,97501.25
2023-04-21T05:16:23.589Z,97492.63
2023-04-21T05:18:54.190Z,97489.88
2023-04-21T05:21:27.854Z,97498.06
2023-04-21T05:23:58.923Z,97503.19
2023-04-21T05:26:28.686Z,97497.84
2023-04-21T05:28:58.240Z,97386.97
2023-04-21T05:31:27.096Z,97500.97
2023-04-21T05:33:55.414Z,97503.47
2023-04-21T05:36:25.046Z,97492.06
2023-04-21T05:38:55.255Z,97498.81
2023-04-21T05:41:24.988Z,97502.88
2023-04-21T05:43:53.225Z,97482.03
2023-04-21T05:46:21.726Z,97490.38
2023-04-21T05:48:50.089Z,97491.06
2023-04-21T05:51:18.376Z,97496.06
2023-04-21T05:53:47.425Z,97502.81
2023-04-21T05:56:15.776Z,97506.97
2023-04-21T05:58:45.712Z,97513.03
2023-04-21T06:01:15.793Z,97495.09
2023-04-21T06:03:44.220Z,97421.28
2023-04-21T06:06:13.492Z,97520.22
2023-04-21T06:08:41.809Z,97479.44
2023-04-21T06:11:10.353Z,97526.09
2023-04-21T06:13:39.538Z,97523.63
2023-04-21T06:16:10.995Z,97515.63
2023-04-21T06:18:39.570Z,97520.59
2023-04-21T06:21:12.961Z,97510.72
2023-04-21T06:23:42.086Z,97520.22
2023-04-21T06:26:10.444Z,97535.81
2023-04-21T06:28:39.472Z,97525.97
2023-04-21T06:31:10.123Z,97525.72
2023-04-21T06:33:40.033Z,97522.75
2023-04-21T06:36:08.987Z,97507.03
2023-04-21T06:38:40.469Z,97523.97
2023-04-21T06:41:09.130Z,97526.19
2023-04-21T06:43:38.655Z,97519.44
2023-04-21T06:46:07.585Z,97521.88
2023-04-21T06:48:35.924Z,97516.19
2023-04-21T06:51:06.094Z,97516.34
2023-04-21T06:53:34.451Z,97494.03
2023-04-21T06:56:02.759Z,97504.84
2023-04-21T06:58:31.091Z,97515.84
2023-04-21T07:00:59.496Z,97497.94
2023-04-21T07:03:27.926Z,97395.06
2023-04-21T07:05:56.201Z,97516.88
2023-04-21T07:08:26.772Z,97494.38
2023-04-21T07:10:55.053Z,97504.22
2023-04-21T07:13:23.424Z,97505.09
2023-04-21T07:15:51.956Z,97522.97
2023-04-21T07:18:20.294Z,97490.94
2023-04-21T07:20:48.664Z,97509.38
2023-04-21T07:23:18.104Z,97512.09
2023-04-21T07:25:47.833Z,97514.38
2023-04-21T07:28:16.616Z,97520.03
2023-04-21T07:30:45.022Z,97479.53
2023-04-21T07:33:13.520Z,97436.41
2023-04-21T07:35:41.992Z,97503.56
2023-04-21T07:38:10.389Z,97513.94
2023-04-21T07:40:38.765Z,97520.03
2023-04-21T07:43:08.727Z,97511.69
2023-04-21T07:45:36.949Z,97515.88
2023-04-21T07:48:06.876Z,97501.97
2023-04-21T07:50:36.823Z,97519.44
2023-04-21T07:53:05.516Z,97523.94
2023-04-21T07:55:34.626Z,97537.00
2023-04-21T07:58:02.945Z,97525.72
2023-04-21T08:00:32.860Z,97460.06
2023-04-21T08:03:01.844Z,97498.41
2023-04-21T08:05:33.997Z,97523.84
2023-04-21T08:08:04.438Z,97498.28
2023-04-21T08:10:32.945Z,97505.03
2023-04-21T08:13:01.370Z,97529.69
2023-04-21T08:15:30.106Z,97527.13
2023-04-21T08:18:00.084Z,97507.69
2023-04-21T08:20:28.710Z,97517.09
2023-04-21T08:22:57.013Z,97504.53
2023-04-21T08:25:25.460Z,97505.91
2023-04-21T08:27:53.783Z,97518.94
2023-04-21T08:30:22.688Z,97476.91
2023-04-21T08:32:51.195Z,97514.03
2023-04-21T08:35:21.280Z,97504.25
2023-04-21T08:37:50.609Z,97471.38
2023-04-21T08:40:20.292Z,97494.25
2023-04-21T08:42:49.869Z,97513.72
2023-04-21T08:45:18.101Z,97506.66
2023-04-21T08:47:47.204Z,97510.44
2023-04-21T08:50:15.923Z,97458.28
2023-04-21T08:52:46.019Z,97507.66
2023-04-21T08:55:15.362Z,97504.59
2023-04-21T08:57:43.708Z,97491.84
2023-04-21T09:00:13.102Z,97493.69
2023-04-21T09:03:00.939Z,97446.72
2023-04-21T09:05:32.383Z,97477.63
2023-04-21T09:08:11.511Z,97486.97
2023-04-21T09:10:46.621Z,97500.22
2023-04-21T09:13:15.387Z,97473.13
2023-04-21T09:15:44.590Z,97491.47
2023-04-21T09:18:15.576Z,97496.97
2023-04-21T09:20:44.904Z,97488.25
2023-04-21T09:23:14.938Z,97475.25
2023-04-21T09:25:44.678Z,97496.19
2023-04-21T09:28:14.410Z,97496.44
2023-04-21T09:30:44.493Z,97498.19
2023-04-21T09:33:29.081Z,97487.13
2023-04-21T09:36:03.445Z,97498.94
2023-04-21T09:38:34.550Z,97481.81
2023-04-21T09:41:02.978Z,97497.81
2023-04-21T09:43:32.528Z,97477.88
2023-04-21T09:46:07.301Z,97485.63
2023-04-21T09:48:37.944Z,97399.28
2023-04-21T09:53:41.380Z,97485.81
2023-04-21T09:56:13.094Z,97477.13
2023-04-21T09:58:47.308Z,97482.78
2023-04-21T10:01:16.781Z,97477.69
2023-04-21T10:03:47.190Z,97466.13
2023-04-21T10:06:16.142Z,97478.25
2023-04-21T10:08:46.924Z,97444.47
2023-04-21T10:11:17.181Z,97475.19
2023-04-21T10:13:46.183Z,97477.06
2023-04-21T10:16:18.333Z,97473.31
2023-04-21T10:18:47.726Z,97470.13
2023-04-21T10:21:22.299Z,97448.84
2023-04-21T10:23:54.340Z,97460.75
2023-04-21T10:26:24.852Z,97461.72
2023-04-21T10:28:58.175Z,97468.53
2023-04-21T10:31:34.949Z,97460.13
2023-04-21T10:34:23.611Z,97451.09
2023-04-21T10:37:15.809Z,97450.78
2023-04-21T10:39:48.722Z,97438.53
2023-04-21T10:42:23.201Z,97445.22
2023-04-21T10:45:04.153Z,97450.94
2023-04-21T10:47:38.596Z,97451.25
2023-04-21T10:50:16.005Z,97461.69
2023-04-21T10:52:53.425Z,97363.38
2023-04-21T10:55:23.764Z,97454.50
2023-04-21T10:57:52.245Z,97445.69
2023-04-21T11:00:23.155Z,97445.34
2023-04-21T11:02:59.672Z,97423.25
2023-04-21T11:05:35.010Z,97424.38
2023-04-21T11:08:14.915Z,97427.41
2023-04-21T11:10:52.133Z,97405.78
2023-04-21T11:13:23.550Z,97444.56
2023-04-21T11:16:02.122Z,97446.78
2023-04-21T11:18:40.561Z,97404.44
2023-04-21T11:21:13.957Z,97424.66
2023-04-21T11:23:43.133Z,97430.63
2023-04-21T11:26:12.820Z,97414.22
2023-04-21T11:28:42.160Z,97398.53
2023-04-21T11:31:10.709Z,97421.38
2023-04-21T11:33:40.512Z,97408.56
2023-04-21T11:36:09.467Z,97427.84
2023-04-21T11:38:41.973Z,97423.97
2023-04-21T11:41:12.883Z,97410.28
2023-04-21T11:43:41.191Z,97406.53
2023-04-21T11:46:19.300Z,97420.47
2023-04-21T11:48:47.698Z,97403.03
2023-04-21T11:51:22.159Z,97417.06
2023-04-21T11:53:50.829Z,97412.66
2023-04-21T11:56:23.522Z,97413.72
2023-04-21T11:58:53.029Z,97399.78
2023-04-21T12:01:22.108Z,97405.06
2023-04-21T12:03:55.591Z,97332.63
2023-04-21T12:06:26.222Z,97336.31
2023-04-21T12:08:59.046Z,97401.28
2023-04-21T12:11:29.454Z,97398.41
2023-04-21T12:13:59.323Z,97404.19
2023-04-21T12:16:28.610Z,97366.31
2023-04-21T12:18:57.961Z,97401.31
2023-04-21T12:21:29.654Z,97406.78
2023-04-21T12:23:58.720Z,97388.75
2023-04-21T12:26:28.524Z,97399.78
2023-04-21T12:28:57.182Z,97401.03
2023-04-21T12:31:26.213Z,97372.06
2023-04-21T12:33:54.700Z,97401.06
2023-04-21T12:36:23.236Z,97401.66
2023-04-21T12:38:51.624Z,97358.25
2023-04-21T12:41:20.139Z,97399.19
2023-04-21T12:43:50.016Z,97394.84
2023-04-21T12:46:18.397Z,97403.25
2023-04-21T12:48:46.746Z,97409.94
2023-04-21T12:51:15.244Z,97426.94
2023-04-21T12:53:43.472Z,97431.53
2023-04-21T12:56:12.015Z,97435.41
2023-04-21T12:58:40.369Z,97421.53
2023-04-21T13:01:10.102Z,97418.81
2023-04-21T13:03:38.610Z,97410.53
2023-04-21T13:06:07.392Z,97429.50
2023-04-21T13:08:36.181Z,97425.47
2023-04-21T13:11:04.649Z,97420.41
2023-04-21T13:13:33.225Z,97436.56
2023-04-21T13:16:01.739Z,97415.13
2023-04-21T13:18:31.565Z,97432.81
2023-04-21T13:20:59.881Z,97424.78
2023-04-21T13:23:28.312Z,97424.22
2023-04-21T13:25:57.026Z,97307.56
2023-04-21T13:28:26.746Z,97419.03
2023-04-21T13:30:55.453Z,97402.06
2023-04-21T13:33:24.090Z,97407.03
2023-04-21T13:35:53.835Z,97365.34
2023-04-21T13:38:22.452Z,97386.72
2023-04-21T13:40:51.346Z,97374.75
2023-04-21T13:43:19.647Z,97386.19
2023-04-21T13:45:50.005Z,97336.31
2023-04-21T13:48:18.399Z,97400.78
2023-04-21T13:50:46.789Z,97395.34
2023-04-21T13:53:19.263Z,97394.16
2023-04-21T13:55:49.033Z,97392.13
2023-04-21T13:58:18.126Z,97368.16
2023-04-21T14:00:46.382Z,97341.84
2023-04-21T14:03:15.196Z,97384.75
2023-04-21T14:05:43.848Z,97357.47
2023-04-21T14:08:12.428Z,97373.16
2023-04-21T14:10:42.289Z,97296.88
2023-04-21T14:13:15.092Z,97363.25
2023-04-21T14:15:55.572Z,97355.50
2023-04-21T14:18:24.058Z,97353.44
2023-04-21T14:20:52.389Z,97341.06
2023-04-21T14:23:20.706Z,97255.72
2023-04-21T14:25:50.816Z,97335.88
2023-04-21T14:28:20.009Z,97277.28
2023-04-21T14:30:48.411Z,97334.03
2023-04-21T14:33:16.865Z,97304.75
2023-04-21T14:35:45.263Z,97332.81
2023-04-21T14:38:13.562Z,97314.91
2023-04-21T14:40:41.896Z,97321.38
2023-04-21T14:43:12.225Z,97327.69
2023-04-21T14:45:41.342Z,97315.06
2023-04-21T14:48:09.817Z,97317.97
2023-04-21T14:50:38.057Z,97306.31
2023-04-21T14:53:06.969Z,97314.06
2023-04-21T14:55:35.487Z,97299.63
2023-04-21T14:58:03.869Z,97317.72
2023-04-21T15:00:35.121Z,97303.75
2023-04-21T15:03:04.038Z,97310.72
2023-04-21T15:05:32.780Z,97291.34
2023-04-21T15:08:01.212Z,97306.47
2023-04-21T15:10:32.400Z,97289.59
2023-04-21T15:13:00.923Z,97302.19
2023-04-21T15:15:29.387Z,97304.84
2023-04-21T15:17:59.168Z,97252.19
2023-04-21T15:20:42.997Z,97309.59
2023-04-21T15:23:12.911Z,97306.63
2023-04-21T15:25:41.709Z,97307.56
2023-04-21T15:28:10.074Z,97298.78
2023-04-21T15:30:38.482Z,97295.13
2023-04-21T15:33:08.356Z,97277.97
2023-04-21T15:35:36.677Z,97293.59
2023-04-21T15:38:06.149Z,97299.13
2023-04-21T15:40:35.361Z,97295.72
2023-04-21T15:43:06.247Z,97295.44
2023-04-21T15:45:34.725Z,97279.03
2023-04-21T15:48:03.208Z,97290.25
2023-04-21T15:50:33.039Z,97289.22
2023-04-21T15:53:01.412Z,97260.91
2023-04-21T15:55:30.604Z,97275.00
2023-04-21T15:57:59.048Z,97282.06
2023-04-21T16:00:27.428Z,97271.69
2023-04-21T16:02:55.995Z,97269.00
2023-04-21T16:05:27.646Z,97260.22
2023-04-21T16:07:58.740Z,97272.00
2023-04-21T16:10:27.039Z,97278.97
2023-04-21T16:12:55.696Z,97272.50
2023-04-21T16:15:25.005Z,97272.31
2023-04-21T16:17:53.707Z,97268.66
2023-04-21T16:20:22.184Z,97272.03
2023-04-21T16:22:51.384Z,97272.25
2023-04-21T16:25:21.568Z,97268.81
2023-04-21T16:27:50.158Z,97179.69
2023-04-21T16:30:18.654Z,97266.00
2023-04-21T16:32:47.185Z,97253.22
2023-04-21T16:35:15.629Z,97261.66
2023-04-21T16:37:44.657Z,97269.50
2023-04-21T16:40:14.331Z,97249.50
2023-04-21T16:42:44.121Z,97256.22
2023-04-21T16:45:13.381Z,97243.41
2023-04-21T16:47:42.554Z,97234.81
2023-04-21T16:50:11.575Z,97256.78
2023-04-21T16:52:39.946Z,97260.31
2023-04-21T16:55:09.401Z,97249.38
2023-04-21T16:57:37.912Z,97263.81
2023-04-21T17:00:09.813Z,97264.66
2023-04-21T17:02:38.387Z,97250.09
2023-04-21T17:05:07.425Z,97253.84
2023-04-21T17:07:36.356Z,97182.16
2023-04-21T17:10:05.027Z,97271.09
2023-04-21T17:12:33.262Z,97273.88
2023-04-21T17:15:01.625Z,97245.16
2023-04-21T17:17:40.791Z,97274.56
2023-04-21T17:20:11.340Z,97255.22
2023-04-21T17:22:39.669Z,97237.06
2023-04-21T17:25:08.585Z,97274.81
2023-04-21T17:27:38.470Z,97284.53
2023-04-21T17:30:09.061Z,97274.03
2023-04-21T17:32:40.679Z,97282.81
2023-04-21T17:35:09.561Z,97273.53
2023-04-21T17:37:37.967Z,97279.00
2023-04-21T17:40:08.993Z,97269.16
2023-04-21T17:42:37.343Z,97273.31
2023-04-21T17:45:07.795Z,97286.41
2023-04-21T17:47:36.450Z,97273.13
2023-04-21T17:50:09.107Z,97291.91
2023-04-21T17:52:37.413Z,97285.66
2023-04-21T17:55:06.368Z,97292.47
2023-04-21T17:57:34.689Z,97258.69
2023-04-21T18:00:07.314Z,97261.44
2023-04-21T18:02:35.910Z,97295.16
2023-04-21T18:05:06.938Z,97267.56
2023-04-21T18:07:35.478Z,97271.72
2023-04-21T18:10:04.028Z,97269.88
2023-04-21T18:12:32.410Z,97289.56
2023-04-21T18:15:00.882Z,97291.06
2023-04-21T18:17:29.281Z,97284.97
2023-04-21T18:19:57.752Z,97304.03
2023-04-21T18:22:27.587Z,97194.94
2023-04-21T18:24:56.197Z,97302.09
2023-04-21T18:27:24.601Z,97304.31
2023-04-21T18:29:52.968Z,97309.56
2023-04-21T18:32:21.332Z,97297.59
2023-04-21T18:34:49.831Z,97321.94
2023-04-21T18:37:18.767Z,97319.59
2023-04-21T18:39:48.467Z,97320.72
2023-04-21T18:42:17.290Z,97314.06
2023-04-21T18:44:45.647Z,97335.19
2023-04-21T18:47:15.712Z,97318.03
2023-04-21T18:49:45.297Z,97254.53
2023-04-21T18:52:14.219Z,97340.44
2023-04-21T18:54:42.628Z,97326.25
2023-04-21T18:57:12.873Z,97314.56
2023-04-21T18:59:41.377Z,97286.47
2023-04-21T19:02:13.820Z,97333.53
2023-04-21T19:04:44.184Z,97326.44
2023-04-21T19:07:12.938Z,97282.19
2023-04-21T19:09:41.210Z,97325.19
2023-04-21T19:12:09.657Z,97332.00
2023-04-21T19:14:46.459Z,97334.69
2023-04-21T19:17:15.800Z,97337.00
2023-04-21T19:19:44.648Z,97336.28
2023-04-21T19:22:13.079Z,97298.63
2023-04-21T19:24:41.496Z,97337.72
2023-04-21T19:27:09.836Z,97288.22
2023-04-21T19:29:40.080Z,97329.47
2023-04-21T19:32:08.434Z,97294.69
2023-04-21T19:34:37.382Z,97313.16
2023-04-21T19:37:06.120Z,97321.03
2023-04-21T19:39:34.459Z,97315.09
2023-04-21T19:42:02.979Z,97313.63
2023-04-21T19:44:31.404Z,97321.03
2023-04-21T19:47:10.249Z,97315.19
2023-04-21T19:53:22.582Z,97320.16
2023-04-21T19:55:52.988Z,97310.47
2023-04-21T19:58:32.617Z,97291.81
2023-04-21T20:01:08.408Z,97306.25
2023-04-21T20:03:38.637Z,97319.94
2023-04-21T20:06:07.709Z,97325.38
2023-04-21T20:08:36.835Z,97269.00
2023-04-21T20:15:32.524Z,97326.22
2023-04-21T20:18:00.910Z,97321.59
2023-04-21T20:20:30.972Z,97316.28
2023-04-21T20:22:59.320Z,97120.47
2023-04-21T20:25:28.028Z,97298.06
2023-04-21T20:27:56.430Z,97324.66
2023-04-21T20:30:24.741Z,97302.59
2023-04-21T20:32:53.210Z,97295.81
2023-04-21T20:35:21.628Z,97314.81
2023-04-21T20:37:53.528Z,97334.66
2023-04-21T20:40:22.038Z,97335.25
2023-04-21T20:42:52.437Z,97324.59
2023-04-21T20:45:21.549Z,97313.56
2023-04-21T20:47:49.845Z,97322.38
2023-04-21T20:50:18.646Z,97333.38
2023-04-21T20:52:46.945Z,97330.88
2023-04-21T20:55:16.811Z,97317.47
2023-04-21T20:57:45.059Z,97336.91
2023-04-21T21:00:13.976Z,97311.81
2023-04-21T21:02:42.397Z,97335.25
2023-04-21T21:05:11.047Z,97323.06
2023-04-21T21:07:39.478Z,97329.16
2023-04-21T21:10:10.977Z,97322.94
2023-04-21T21:12:40.699Z,97309.13
2023-04-21T21:15:09.570Z,97327.53
2023-04-21T21:17:40.553Z,97332.94
2023-04-21T21:20:10.122Z,97338.94
2023-04-21T21:22:38.552Z,97336.53
2023-04-21T21:25:07.436Z,97331.34
2023-04-21T21:27:35.898Z,97308.41
2023-04-21T21:30:06.412Z,97318.28
2023-04-21T21:32:34.713Z,97229.63
2023-04-21T21:35:03.044Z,97325.63
2023-04-21T21:37:31.332Z,97323.72
2023-04-21T21:39:59.470Z,97328.63
2023-04-21T21:42:27.832Z,97286.44
2023-04-21T21:44:56.061Z,97330.00
2023-04-21T21:47:26.215Z,97300.25
2023-04-21T21:49:56.059Z,97339.00
2023-04-21T21:52:24.722Z,97331.16
2023-04-21T21:54:54.066Z,97331.28
2023-04-21T21:57:22.707Z,97325.63
2023-04-21T21:59:50.967Z,97341.16
2023-04-21T22:02:19.222Z,97340.00
2023-04-21T22:04:49.565Z,97342.78
2023-04-21T22:07:17.859Z,97342.16
2023-04-21T22:09:46.599Z,97348.88
2023-04-21T22:12:14.774Z,97354.47
2023-04-21T22:14:42.944Z,97346.69
2023-04-21T22:17:11.180Z,97345.19
2023-04-21T22:19:41.818Z,97344.34
2023-04-21T22:22:11.854Z,97313.81
2023-04-21T22:24:40.055Z,97346.44
2023-04-21T22:27:08.368Z,97345.38
2023-04-21T22:29:36.764Z,97350.63
2023-04-21T22:32:05.279Z,97288.28
2023-04-21T22:34:33.455Z,97213.78
2023-04-21T22:37:02.345Z,97325.50
2023-04-21T22:39:31.999Z,97356.41
2023-04-21T22:42:00.196Z,97326.72
2023-04-21T22:44:28.369Z,97344.75
2023-04-21T22:49:25.196Z,97360.41
2023-04-21T22:51:54.541Z,97363.84
2023-04-21T22:54:22.619Z,97336.50
2023-04-21T22:56:52.289Z,97352.75
2023-04-21T22:59:20.449Z,97368.13
2023-04-21T23:01:48.685Z,97353.41
2023-04-21T23:04:16.986Z,96948.25
2023-04-21T23:06:45.164Z,97252.31
2023-04-21T23:09:13.238Z,97374.47
2023-04-21T23:11:41.476Z,97378.88
2023-04-21T23:14:11.091Z,97372.28
2023-04-21T23:16:39.399Z,97368.94
2023-04-21T23:19:07.789Z,97342.38
2023-04-21T23:21:35.972Z,97350.09
2023-04-21T23:24:04.095Z,97370.00
2023-04-21T23:26:32.247Z,97075.44
2023-04-21T23:29:00.414Z,97343.56
2023-04-21T23:31:30.825Z,97365.03
2023-04-21T23:34:00.242Z,97382.56
2023-04-21T23:36:28.606Z,97282.38
2023-04-21T23:38:56.740Z,97354.09
2023-04-21T23:41:25.089Z,97228.72
2023-04-21T23:43:53.243Z,97369.59
2023-04-21T23:46:21.397Z,97348.03
2023-04-21T23:48:51.035Z,97362.38
2023-04-21T23:51:19.337Z,97361.88
2023-04-21T23:53:47.552Z,97300.63
2023-04-21T23:56:15.854Z,97277.22
2023-04-21T23:58:43.985Z,97351.13
